Time;durP1;ratioP1;P1;durP2;ratioP2;P2;SDS_P1;SDS_P2;PMS_P1;PMS_P2;Temp;Humidity;BMP_temperature;BMP_pressure;BME280_temperature;BME280_humidity;BME280_pressure;Samples;Min_cycle;Max_cycle;Signal;HPM_P1;HPM_P2
2022/10/28 00:01:08;;;;;;;7.05;2.72;;;;;;;;;;5050861;28;20033;-73
2022/10/28 00:03:37;;;;;;;5.88;1.88;;;;;;;;;;5050342;28;20049;-70
2022/10/28 00:06:09;;;;;;;7.18;2.67;;;;;;;;;;5051341;28;20013;-70
2022/10/28 00:08:36;;;;;;;5.07;1.90;;;;;;;;;;5051510;28;20045;-69
2022/10/28 00:11:03;;;;;;;3.90;2.00;;;;;;;;;;5051814;28;20079;-70
2022/10/28 00:13:30;;;;;;;4.53;2.17;;;;;;;;;;5051685;28;20029;-69
2022/10/28 00:16:03;;;;;;;2.08;1.65;;;;;;;;;;5046964;28;20384;-70
2022/10/28 00:18:30;;;;;;;6.85;2.03;;;;;;;;;;5046162;28;20021;-72
2022/10/28 00:21:04;;;;;;;4.30;2.38;;;;;;;;;;5046479;28;20028;-72
2022/10/28 00:23:30;;;;;;;6.93;2.30;;;;;;;;;;5046726;28;20056;-70
2022/10/28 00:26:03;;;;;;;13.75;2.60;;;;;;;;;;5054164;28;20438;-69
2022/10/28 00:28:30;;;;;;;2.88;1.52;;;;;;;;;;5054894;28;20036;-70
2022/10/28 00:31:02;;;;;;;5.15;1.77;;;;;;;;;;5055176;28;20021;-68
2022/10/28 00:33:29;;;;;;;4.80;2.80;;;;;;;;;;5054727;28;20036;-72
2022/10/28 00:35:55;;;;;;;2.78;1.67;;;;;;;;;;5055047;28;20051;-69
2022/10/28 00:38:22;;;;;;;6.85;1.92;;;;;;;;;;5050299;28;20064;-70
2022/10/28 00:40:49;;;;;;;3.97;1.80;;;;;;;;;;5049867;28;20476;-68
2022/10/28 00:43:15;;;;;;;2.45;1.58;;;;;;;;;;5049972;28;20021;-69
2022/10/28 00:45:42;;;;;;;18.38;3.05;;;;;;;;;;5050050;28;20025;-69
2022/10/28 00:48:09;;;;;;;7.82;4.18;;;;;;;;;;5053171;28;20078;-71
2022/10/28 00:50:35;;;;;;;4.90;2.67;;;;;;;;;;5054670;28;20029;-70
2022/10/28 00:53:04;;;;;;;12.40;3.40;;;;;;;;;;5054383;28;20521;-69
2022/10/28 00:55:31;;;;;;;5.33;2.60;;;;;;;;;;5054863;28;20036;-71
2022/10/28 00:57:58;;;;;;;6.90;3.47;;;;;;;;;;5054252;28;20122;-68
2022/10/28 01:00:28;;;;;;;7.23;3.40;;;;;;;;;;5069315;28;20036;-69
2022/10/28 01:02:55;;;;;;;5.53;3.27;;;;;;;;;;5051499;28;20041;-68
2022/10/28 01:05:24;;;;;;;5.40;3.43;;;;;;;;;;5048960;28;20033;-70
2022/10/28 01:07:53;;;;;;;5.90;3.63;;;;;;;;;;5048623;28;20024;-71
2022/10/28 01:10:22;;;;;;;8.30;2.07;;;;;;;;;;5052364;28;20044;-67
2022/10/28 01:12:58;;;;;;;9.33;2.73;;;;;;;;;;5054164;28;20361;-69
2022/10/28 01:15:32;;;;;;;4.73;2.70;;;;;;;;;;5054000;28;20424;-69
2022/10/28 01:18:02;;;;;;;5.03;2.88;;;;;;;;;;5054285;28;20037;-69
2022/10/28 01:20:47;;;;;;;13.07;4.03;;;;;;;;;;5053988;28;20032;-70
2022/10/28 01:23:26;;;;;;;15.47;3.50;;;;;;;;;;5049582;28;20032;-70
2022/10/28 01:25:55;;;;;;;5.13;2.53;;;;;;;;;;5049942;28;20120;-67
2022/10/28 01:28:25;;;;;;;4.00;2.00;;;;;;;;;;5048920;28;20025;-72
2022/10/28 01:31:10;;;;;;;4.33;2.30;;;;;;;;;;5047349;28;20029;-70
2022/10/28 01:33:40;;;;;;;3.07;2.27;;;;;;;;;;5053678;28;20087;-68
2022/10/28 01:36:27;;;;;;;5.93;3.60;;;;;;;;;;5053175;28;20036;-67
2022/10/28 01:39:03;;;;;;;23.20;3.33;;;;;;;;;;5053598;28;20053;-69
2022/10/28 01:41:33;;;;;;;4.50;2.73;;;;;;;;;;5053781;28;20496;-68
2022/10/28 01:44:07;;;;;;;3.53;1.93;;;;;;;;;;5051558;28;20369;-68
2022/10/28 01:46:40;;;;;;;6.93;1.50;;;;;;;;;;5048242;28;20029;-69
2022/10/28 01:49:19;;;;;;;5.30;2.23;;;;;;;;;;5043613;28;20037;-69
2022/10/28 01:51:52;;;;;;;6.13;2.13;;;;;;;;;;5067185;28;20037;-68
2022/10/28 01:54:22;;;;;;;6.13;2.80;;;;;;;;;;5056036;28;20033;-68
2022/10/28 01:56:49;;;;;;;5.70;2.17;;;;;;;;;;5055802;28;20507;-68
2022/10/28 01:59:23;;;;;;;9.77;3.03;;;;;;;;;;5062216;28;20036;-68
2022/10/28 02:01:50;;;;;;;3.08;1.60;;;;;;;;;;5072261;28;20083;-68
2022/10/28 02:04:16;;;;;;;3.67;1.90;;;;;;;;;;5053235;28;20116;-68
2022/10/28 02:06:45;;;;;;;1.83;1.43;;;;;;;;;;5055021;28;20087;-68
2022/10/28 02:09:12;;;;;;;7.07;2.80;;;;;;;;;;5049335;28;20514;-68
2022/10/28 02:11:39;;;;;;;2.47;1.60;;;;;;;;;;5059407;28;20378;-69
2022/10/28 02:14:24;;;;;;;4.47;1.73;;;;;;;;;;5046162;28;20029;-68
2022/10/28 02:17:06;;;;;;;2.83;1.63;;;;;;;;;;5047127;28;20029;-68
2022/10/28 02:19:33;;;;;;;2.80;1.10;;;;;;;;;;5053146;28;20039;-68
2022/10/28 02:22:18;;;;;;;2.10;1.57;;;;;;;;;;5053103;28;20406;-68
2022/10/28 02:24:44;;;;;;;;;;;;;;;;;;5053141;28;20039;-68
2022/10/28 02:27:18;;;;;;;3.63;2.10;;;;;;;;;;5052988;28;20349;-68
2022/10/28 02:29:54;;;;;;;3.17;1.00;;;;;;;;;;5049334;28;20147;-67
2022/10/28 02:32:24;;;;;;;1.50;1.17;;;;;;;;;;5047272;28;20028;-67
2022/10/28 02:34:53;;;;;;;4.23;2.30;;;;;;;;;;5047563;28;20033;-68
2022/10/28 02:37:22;;;;;;;5.87;0.87;;;;;;;;;;5047831;28;20029;-68
2022/10/28 02:39:50;;;;;;;8.07;2.07;;;;;;;;;;5050242;28;20064;-68
2022/10/28 02:42:23;;;;;;;1.70;1.23;;;;;;;;;;5052361;28;20368;-67
2022/10/28 02:44:52;;;;;;;6.83;2.10;;;;;;;;;;5052727;28;20531;-68
2022/10/28 02:47:21;;;;;;;5.07;2.77;;;;;;;;;;5033466;28;20041;-68
2022/10/28 02:49:50;;;;;;;3.43;1.57;;;;;;;;;;5032157;28;20025;-67
2022/10/28 02:52:19;;;;;;;2.80;1.63;;;;;;;;;;5028515;28;20041;-68
2022/10/28 02:54:57;;;;;;;4.33;1.60;;;;;;;;;;5046698;28;20048;-68
2022/10/28 02:57:25;;;;;;;1.83;1.13;;;;;;;;;;5047489;28;20025;-68
2022/10/28 02:59:56;;;;;;;2.03;1.40;;;;;;;;;;5061648;28;20100;-68
2022/10/28 03:02:23;;;;;;;3.83;1.47;;;;;;;;;;5071082;28;20028;-67
2022/10/28 03:04:49;;;;;;;3.37;1.60;;;;;;;;;;5053116;28;20037;-68
2022/10/28 03:07:16;;;;;;;4.30;1.60;;;;;;;;;;5051398;28;20025;-67
2022/10/28 03:09:43;;;;;;;1.20;0.93;;;;;;;;;;5052090;28;20078;-67
2022/10/28 03:12:09;;;;;;;4.10;1.73;;;;;;;;;;5052255;28;20037;-67
2022/10/28 03:14:37;;;;;;;2.60;1.27;;;;;;;;;;5048125;28;20049;-67
2022/10/28 03:17:03;;;;;;;1.17;0.73;;;;;;;;;;5046888;28;20387;-68
2022/10/28 03:19:30;;;;;;;1.47;1.13;;;;;;;;;;5046899;28;20035;-67
2022/10/28 03:21:57;;;;;;;0.97;0.80;;;;;;;;;;5046800;28;20137;-70
2022/10/28 03:24:23;;;;;;;7.73;1.60;;;;;;;;;;5050021;28;20037;-67
2022/10/28 03:26:50;;;;;;;4.27;2.07;;;;;;;;;;5051800;28;20029;-70
2022/10/28 03:29:16;;;;;;;5.97;1.40;;;;;;;;;;5051741;28;20445;-68
2022/10/28 03:31:43;;;;;;;1.73;1.23;;;;;;;;;;5051420;28;20423;-71
2022/10/28 03:34:10;;;;;;;3.07;1.60;;;;;;;;;;5051607;28;20055;-73
2022/10/28 03:36:36;;;;;;;3.00;1.40;;;;;;;;;;5048790;28;20368;-69
2022/10/28 03:39:03;;;;;;;7.83;2.33;;;;;;;;;;5046863;28;20819;-71
2022/10/28 03:41:30;;;;;;;2.20;1.40;;;;;;;;;;5046858;28;20033;-71
2022/10/28 03:43:57;;;;;;;1.27;0.90;;;;;;;;;;5046769;28;20040;-68
2022/10/28 03:46:23;;;;;;;5.37;1.50;;;;;;;;;;5049418;28;20040;-69
2022/10/28 03:48:50;;;;;;;1.13;0.80;;;;;;;;;;5052175;28;20104;-67
2022/10/28 03:51:17;;;;;;;1.73;1.33;;;;;;;;;;5051725;28;20475;-68
2022/10/28 03:53:43;;;;;;;3.80;1.40;;;;;;;;;;5051400;28;20075;-66
2022/10/28 03:56:11;;;;;;;1.47;1.27;;;;;;;;;;5051723;28;20037;-69
2022/10/28 03:58:37;;;;;;;2.67;1.33;;;;;;;;;;5053218;28;20360;-69
2022/10/28 04:01:04;;;;;;;3.07;1.20;;;;;;;;;;5062090;28;20028;-67
2022/10/28 04:03:31;;;;;;;1.93;1.40;;;;;;;;;;5050737;28;20017;-68
2022/10/28 04:05:58;;;;;;;1.80;1.17;;;;;;;;;;5050527;28;20028;-68
2022/10/28 04:08:24;;;;;;;1.27;1.10;;;;;;;;;;5051734;28;20029;-71
2022/10/28 04:10:51;;;;;;;2.60;1.43;;;;;;;;;;5055537;28;20086;-66
2022/10/28 04:13:18;;;;;;;6.20;2.23;;;;;;;;;;5055214;28;20029;-68
2022/10/28 04:15:45;;;;;;;2.50;1.23;;;;;;;;;;5055282;28;20033;-70
2022/10/28 04:18:11;;;;;;;1.10;0.73;;;;;;;;;;5055439;28;20163;-68
2022/10/28 04:20:38;;;;;;;2.57;1.47;;;;;;;;;;5053348;28;20052;-69
2022/10/28 04:23:05;;;;;;;1.57;1.07;;;;;;;;;;5050188;28;20353;-67
2022/10/28 04:25:32;;;;;;;0.40;0.40;;;;;;;;;;5050014;28;20441;-68
2022/10/28 04:27:59;;;;;;;3.80;1.83;;;;;;;;;;5050006;28;20116;-67
2022/10/28 04:30:26;;;;;;;2.50;1.67;;;;;;;;;;5051446;28;20039;-69
2022/10/28 04:32:52;;;;;;;2.80;0.90;;;;;;;;;;5054801;28;20087;-69
2022/10/28 04:35:19;;;;;;;4.13;1.30;;;;;;;;;;5054861;28;20140;-67
2022/10/28 04:37:46;;;;;;;1.87;1.27;;;;;;;;;;5054608;28;20017;-68
2022/10/28 04:40:13;;;;;;;1.17;0.70;;;;;;;;;;5054742;28;20116;-67
2022/10/28 04:42:39;;;;;;;0.97;0.77;;;;;;;;;;5052752;28;20019;-66
2022/10/28 04:45:06;;;;;;;1.83;1.17;;;;;;;;;;5048944;28;20116;-67
2022/10/28 04:47:34;;;;;;;1.10;0.80;;;;;;;;;;5049838;28;20033;-68
2022/10/28 04:50:01;;;;;;;2.50;1.17;;;;;;;;;;5049519;28;20026;-69
2022/10/28 04:52:28;;;;;;;2.40;1.63;;;;;;;;;;5050498;28;20104;-67
2022/10/28 04:54:55;;;;;;;1.67;0.97;;;;;;;;;;5053241;28;20060;-67
2022/10/28 04:57:22;;;;;;;2.27;1.30;;;;;;;;;;5054287;28;20021;-67
2022/10/28 04:59:52;;;;;;;2.27;1.40;;;;;;;;;;5067371;28;20031;-69
2022/10/28 05:02:24;;;;;;;5.50;2.17;;;;;;;;;;5074419;28;20472;-66
2022/10/28 05:04:51;;;;;;;1.93;1.40;;;;;;;;;;5073055;28;20020;-67
2022/10/28 05:07:21;;;;;;;3.40;1.80;;;;;;;;;;5051874;28;20539;-66
2022/10/28 05:09:52;;;;;;;1.20;1.00;;;;;;;;;;5049377;28;20033;-66
2022/10/28 05:12:27;;;;;;;2.97;1.73;;;;;;;;;;5047871;28;20488;-65
2022/10/28 05:15:00;;;;;;;2.00;1.60;;;;;;;;;;5050334;28;20032;-66
2022/10/28 05:17:30;;;;;;;5.10;1.93;;;;;;;;;;5053475;28;20100;-68
2022/10/28 05:20:03;;;;;;;2.73;1.17;;;;;;;;;;5053984;28;20025;-65
2022/10/28 05:22:32;;;;;;;1.67;1.20;;;;;;;;;;5053954;28;20024;-66
2022/10/28 05:25:01;;;;;;;7.10;2.03;;;;;;;;;;5054026;28;20024;-65
2022/10/28 05:27:30;;;;;;;6.70;2.03;;;;;;;;;;5051639;28;20024;-65
2022/10/28 05:30:00;;;;;;;2.73;1.63;;;;;;;;;;5048692;28;20040;-65
2022/10/28 05:32:27;;;;;;;2.07;1.47;;;;;;;;;;5049009;28;20029;-65
2022/10/28 05:34:57;;;;;;;1.37;1.00;;;;;;;;;;5048804;28;20044;-65
2022/10/28 05:37:32;;;;;;;1.57;1.17;;;;;;;;;;5049490;28;20036;-66
2022/10/28 05:39:59;;;;;;;;;;;;;;;;;;5053996;28;20032;-65
2022/10/28 05:42:30;;;;;;;1.43;1.03;;;;;;;;;;5053454;28;19973;-65
2022/10/28 05:44:59;;;;;;;2.60;1.70;;;;;;;;;;5053813;28;20186;-65
2022/10/28 05:47:28;;;;;;;1.03;0.90;;;;;;;;;;5053132;28;20028;-65
2022/10/28 05:49:58;;;;;;;3.47;1.77;;;;;;;;;;5051352;28;20114;-66
2022/10/28 05:52:30;;;;;;;1.17;0.90;;;;;;;;;;5048683;28;20498;-65
2022/10/28 05:55:00;;;;;;;1.33;0.93;;;;;;;;;;5048592;28;20040;-65
2022/10/28 05:57:29;;;;;;;1.57;1.07;;;;;;;;;;5047776;28;20036;-65
2022/10/28 06:00:01;;;;;;;2.20;1.23;;;;;;;;;;5060091;28;20044;-65
2022/10/28 06:02:30;;;;;;;2.60;1.23;;;;;;;;;;5072983;28;20071;-65
2022/10/28 06:04:59;;;;;;;1.90;1.30;;;;;;;;;;5062982;28;20480;-65
2022/10/28 06:07:29;;;;;;;2.97;0.97;;;;;;;;;;5053059;28;20032;-66
2022/10/28 06:09:58;;;;;;;2.57;1.37;;;;;;;;;;5053066;28;20021;-65
2022/10/28 06:12:27;;;;;;;1.17;0.90;;;;;;;;;;5050420;28;20032;-65
2022/10/28 06:15:00;;;;;;;0.93;0.70;;;;;;;;;;5047966;28;20029;-65
2022/10/28 06:17:33;;;;;;;1.30;0.97;;;;;;;;;;5047738;28;20025;-65
2022/10/28 06:20:05;;;;;;;1.93;1.30;;;;;;;;;;5048035;28;20425;-65
2022/10/28 06:22:40;;;;;;;4.40;1.70;;;;;;;;;;5049655;28;20028;-65
2022/10/28 06:25:09;;;;;;;1.65;0.82;;;;;;;;;;5053000;28;20045;-65
2022/10/28 06:27:42;;;;;;;1.03;0.40;;;;;;;;;;5052562;28;20020;-66
2022/10/28 06:30:12;;;;;;;1.60;0.93;;;;;;;;;;5052642;28;20029;-65
2022/10/28 06:32:44;;;;;;;2.53;1.33;;;;;;;;;;5052308;28;20029;-65
2022/10/28 06:35:13;;;;;;;2.93;1.10;;;;;;;;;;5049152;28;20033;-65
2022/10/28 06:37:42;;;;;;;1.80;1.40;;;;;;;;;;5047788;28;20066;-65
2022/10/28 06:40:18;;;;;;;1.60;1.03;;;;;;;;;;5047540;28;20017;-65
2022/10/28 06:42:47;;;;;;;2.60;1.53;;;;;;;;;;5047228;28;20025;-65
2022/10/28 06:45:16;;;;;;;1.00;0.80;;;;;;;;;;5050366;28;20032;-65
2022/10/28 06:47:45;;;;;;;3.10;1.27;;;;;;;;;;5052403;28;20740;-65
2022/10/28 06:50:15;;;;;;;0.77;0.63;;;;;;;;;;5052250;28;20125;-65
2022/10/28 06:52:44;;;;;;;1.37;1.00;;;;;;;;;;5051952;28;20024;-65
2022/10/28 06:55:13;;;;;;;5.10;1.13;;;;;;;;;;5052080;28;20035;-65
2022/10/28 06:57:50;;;;;;;2.07;1.07;;;;;;;;;;5048577;28;20040;-65
2022/10/28 07:00:20;;;;;;;0.60;0.53;;;;;;;;;;5065167;28;20076;-65
2022/10/28 07:02:55;;;;;;;0.57;0.57;;;;;;;;;;5065396;28;20098;-65
2022/10/28 07:05:23;;;;;;;2.40;1.00;;;;;;;;;;5046717;28;20340;-65
2022/10/28 07:07:57;;;;;;;2.47;1.33;;;;;;;;;;5050955;28;20484;-65
2022/10/28 07:10:25;;;;;;;0.77;0.50;;;;;;;;;;5051923;28;20025;-65
2022/10/28 07:12:55;;;;;;;1.53;1.17;;;;;;;;;;5051697;28;20071;-65
2022/10/28 07:15:25;;;;;;;0.50;0.33;;;;;;;;;;5052026;28;20439;-64
2022/10/28 07:17:54;;;;;;;0.50;0.43;;;;;;;;;;5051603;28;20028;-65
2022/10/28 07:20:24;;;;;;;2.33;1.33;;;;;;;;;;5047455;28;20128;-65
2022/10/28 07:22:58;;;;;;;1.90;1.43;;;;;;;;;;5046530;28;20468;-65
2022/10/28 07:25:28;;;;;;;2.93;1.67;;;;;;;;;;5047115;28;20115;-65
2022/10/28 07:28:01;;;;;;;1.80;1.33;;;;;;;;;;5046896;28;20518;-65
2022/10/28 07:30:34;;;;;;;1.17;1.07;;;;;;;;;;5050862;28;20033;-65
2022/10/28 07:33:03;;;;;;;2.40;1.23;;;;;;;;;;5051542;28;20052;-64
2022/10/28 07:35:32;;;;;;;2.03;1.00;;;;;;;;;;5054806;28;20555;-64
2022/10/28 07:38:08;;;;;;;4.87;2.30;;;;;;;;;;5055873;28;20032;-64
2022/10/28 07:40:43;;;;;;;2.97;1.63;;;;;;;;;;5055723;28;20375;-65
2022/10/28 07:43:18;;;;;;;1.17;1.08;;;;;;;;;;5050853;28;20032;-65
2022/10/28 07:45:47;;;;;;;2.78;1.17;;;;;;;;;;5051181;28;20044;-65
2022/10/28 07:48:17;;;;;;;2.03;1.30;;;;;;;;;;5050675;28;20017;-65
2022/10/28 07:50:47;;;;;;;2.63;1.70;;;;;;;;;;5050888;28;20376;-65
2022/10/28 07:53:15;;;;;;;1.93;1.23;;;;;;;;;;5054025;28;20040;-65
2022/10/28 07:55:45;;;;;;;1.50;1.10;;;;;;;;;;5055305;28;20020;-64
2022/10/28 07:58:14;;;;;;;2.47;1.73;;;;;;;;;;5055511;28;20021;-64
2022/10/28 08:00:48;;;;;;;1.93;1.30;;;;;;;;;;5075555;28;20021;-65
2022/10/28 08:03:19;;;;;;;1.15;0.82;;;;;;;;;;5074624;28;20017;-65
2022/10/28 08:05:48;;;;;;;2.00;1.20;;;;;;;;;;5066178;28;20017;-65
2022/10/28 08:08:18;;;;;;;0.60;0.47;;;;;;;;;;5050819;28;20540;-64
2022/10/28 08:10:51;;;;;;;1.47;1.17;;;;;;;;;;5050113;28;20107;-64
2022/10/28 08:13:24;;;;;;;0.97;0.80;;;;;;;;;;5050936;28;20025;-64
2022/10/28 08:15:56;;;;;;;2.43;1.23;;;;;;;;;;5055126;28;20040;-64
2022/10/28 08:18:26;;;;;;;1.00;0.87;;;;;;;;;;5054923;28;20023;-65
2022/10/28 08:20:55;;;;;;;3.57;1.53;;;;;;;;;;5054635;28;20020;-64
2022/10/28 08:23:24;;;;;;;2.10;1.47;;;;;;;;;;5054736;28;20464;-64
2022/10/28 08:25:56;;;;;;;2.40;1.53;;;;;;;;;;5052885;28;20025;-64
2022/10/28 08:28:26;;;;;;;3.50;1.47;;;;;;;;;;5049434;28;20031;-65
2022/10/28 08:31:01;;;;;;;5.13;1.90;;;;;;;;;;5049471;28;20029;-65
2022/10/28 08:33:35;;;;;;;1.70;0.83;;;;;;;;;;5049810;28;20377;-64
2022/10/28 08:36:05;;;;;;;2.63;1.27;;;;;;;;;;5050874;28;20025;-64
2022/10/28 08:38:37;;;;;;;3.20;1.67;;;;;;;;;;5054725;28;20021;-64
2022/10/28 08:41:10;;;;;;;1.57;1.30;;;;;;;;;;5054803;28;20021;-64
2022/10/28 08:43:55;;;;;;;2.03;1.10;;;;;;;;;;5054911;28;20061;-64
2022/10/28 08:46:37;;;;;;;2.53;1.63;;;;;;;;;;5034808;28;20100;-64
2022/10/28 08:49:14;;;;;;;1.87;1.57;;;;;;;;;;5031166;28;20038;-64
2022/10/28 08:51:49;;;;;;;0.87;0.63;;;;;;;;;;5029896;28;20467;-64
2022/10/28 08:54:21;;;;;;;1.03;0.77;;;;;;;;;;5029776;28;20104;-64
2022/10/28 08:56:55;;;;;;;0.87;0.77;;;;;;;;;;5038427;28;20502;-64
2022/10/28 08:59:27;;;;;;;1.33;1.00;;;;;;;;;;5063154;28;20028;-64
2022/10/28 09:02:06;;;;;;;2.87;1.93;;;;;;;;;;5074251;28;20107;-64
2022/10/28 09:04:45;;;;;;;1.03;0.80;;;;;;;;;;5074465;28;20485;-64
2022/10/28 09:07:19;;;;;;;1.67;0.93;;;;;;;;;;5056802;28;20419;-65
2022/10/28 09:09:47;;;;;;;1.42;1.23;;;;;;;;;;5053774;28;20033;-65
2022/10/28 09:12:16;;;;;;;0.87;0.70;;;;;;;;;;5049377;28;20032;-64
2022/10/28 09:14:49;;;;;;;0.93;0.87;;;;;;;;;;5048911;28;20165;-64
2022/10/28 09:17:20;;;;;;;0.77;0.57;;;;;;;;;;5049256;28;20028;-64
2022/10/28 09:19:50;;;;;;;2.27;1.27;;;;;;;;;;5049178;28;20029;-64
2022/10/28 09:22:26;;;;;;;1.10;0.90;;;;;;;;;;5053866;28;20029;-65
2022/10/28 09:24:55;;;;;;;0.73;0.60;;;;;;;;;;5053941;28;20475;-65
2022/10/28 09:27:38;;;;;;;1.43;1.27;;;;;;;;;;5053957;28;20029;-64
2022/10/28 09:30:05;;;;;;;3.03;1.70;;;;;;;;;;5054054;28;20108;-64
2022/10/28 09:32:32;;;;;;;0.87;0.67;;;;;;;;;;5052570;28;20479;-65
2022/10/28 09:35:01;;;;;;;0.80;0.70;;;;;;;;;;5048470;28;20856;-64
2022/10/28 09:37:33;;;;;;;3.33;2.03;;;;;;;;;;5048692;28;20091;-64
2022/10/28 09:40:02;;;;;;;2.03;1.37;;;;;;;;;;5048611;28;20119;-64
2022/10/28 09:42:38;;;;;;;0.77;0.70;;;;;;;;;;5049252;28;20371;-64
2022/10/28 09:45:09;;;;;;;0.90;0.70;;;;;;;;;;5053216;28;20036;-65
2022/10/28 09:47:38;;;;;;;1.80;1.33;;;;;;;;;;5053755;28;20032;-64
2022/10/28 09:50:12;;;;;;;2.20;1.50;;;;;;;;;;5053524;28;20049;-65
2022/10/28 09:52:43;;;;;;;1.57;0.97;;;;;;;;;;5053754;28;20025;-64
2022/10/28 09:55:18;;;;;;;1.83;1.27;;;;;;;;;;5051423;28;20037;-65
2022/10/28 09:57:45;;;;;;;2.70;1.60;;;;;;;;;;5047856;28;20043;-64
2022/10/28 10:00:12;;;;;;;1.47;0.90;;;;;;;;;;5065403;28;20027;-64
2022/10/28 10:02:39;;;;;;;3.17;1.73;;;;;;;;;;5068372;28;20020;-65
2022/10/28 10:05:11;;;;;;;1.83;1.10;;;;;;;;;;5062795;28;20078;-64
2022/10/28 10:07:44;;;;;;;1.80;1.07;;;;;;;;;;5053104;28;20057;-64
2022/10/28 10:10:32;;;;;;;0.93;0.73;;;;;;;;;;5052887;28;20032;-64
2022/10/28 10:13:04;;;;;;;0.93;0.73;;;;;;;;;;5052960;28;20149;-65
2022/10/28 10:15:43;;;;;;;2.90;1.50;;;;;;;;;;5052468;28;20064;-64
2022/10/28 10:18:45;;;;;;;3.27;1.50;;;;;;;;;;5049449;28;20029;-64
2022/10/28 10:21:20;;;;;;;1.67;0.90;;;;;;;;;;5047972;28;20048;-64
2022/10/28 10:23:48;;;;;;;;;;;;;;;;;;5048189;28;20086;-65
2022/10/28 10:26:18;;;;;;;0.90;0.80;;;;;;;;;;5047860;28;19948;-64
2022/10/28 10:28:59;;;;;;;2.43;1.23;;;;;;;;;;5051971;28;20031;-64
2022/10/28 10:31:32;;;;;;;0.70;0.70;;;;;;;;;;5052355;28;20523;-64
2022/10/28 10:34:01;;;;;;;1.30;0.83;;;;;;;;;;5052693;28;20032;-64
2022/10/28 10:36:32;;;;;;;3.30;1.70;;;;;;;;;;5051980;28;20472;-64
2022/10/28 10:39:02;;;;;;;0.87;0.60;;;;;;;;;;5052541;28;20354;-64
2022/10/28 10:41:39;;;;;;;1.27;1.10;;;;;;;;;;5047696;28;20476;-64
2022/10/28 10:44:34;;;;;;;1.00;0.37;;;;;;;;;;5047634;28;20379;-64
2022/10/28 10:47:04;;;;;;;1.73;1.27;;;;;;;;;;5025461;28;20053;-64
2022/10/28 10:49:33;;;;;;;0.57;0.50;;;;;;;;;;5028463;28;20025;-64
2022/10/28 10:52:06;;;;;;;0.73;0.70;;;;;;;;;;5032480;28;20021;-64
2022/10/28 10:54:37;;;;;;;1.03;0.93;;;;;;;;;;5032555;28;20040;-64
2022/10/28 10:57:32;;;;;;;1.30;0.97;;;;;;;;;;5032417;28;20032;-64
2022/10/28 11:00:02;;;;;;;0.63;0.50;;;;;;;;;;5060615;28;20062;-64
2022/10/28 11:02:33;;;;;;;1.17;0.77;;;;;;;;;;5069468;28;20027;-64
2022/10/28 11:05:11;;;;;;;1.00;0.80;;;;;;;;;;5049325;28;20037;-64
2022/10/28 11:07:47;;;;;;;0.53;0.53;;;;;;;;;;5046983;28;20029;-64
2022/10/28 11:10:34;;;;;;;0.53;0.53;;;;;;;;;;5046336;28;20033;-64
2022/10/28 11:13:23;;;;;;;0.73;0.60;;;;;;;;;;5050722;28;20480;-64
2022/10/28 11:16:03;;;;;;;0.60;0.57;;;;;;;;;;5032152;28;20033;-64
2022/10/28 11:18:43;;;;;;;1.43;1.17;;;;;;;;;;5032128;28;20595;-64
2022/10/28 11:21:15;;;;;;;1.27;1.10;;;;;;;;;;5032036;28;20022;-64
2022/10/28 11:23:57;;;;;;;0.60;0.57;;;;;;;;;;5035751;28;20013;-64
2022/10/28 11:26:33;;;;;;;2.60;1.10;;;;;;;;;;5047092;28;20029;-64
2022/10/28 11:29:16;;;;;;;0.87;0.80;;;;;;;;;;5047061;28;20025;-64
2022/10/28 11:32:03;;;;;;;2.23;1.03;;;;;;;;;;5047176;28;20056;-64
2022/10/28 11:34:41;;;;;;;3.10;1.23;;;;;;;;;;5048406;28;20036;-64
2022/10/28 11:37:28;;;;;;;1.17;0.83;;;;;;;;;;5051632;28;20072;-64
2022/10/28 11:40:12;;;;;;;0.97;0.87;;;;;;;;;;5051694;28;20025;-64
2022/10/28 11:42:59;;;;;;;2.37;1.47;;;;;;;;;;5051839;28;20387;-64
2022/10/28 11:45:36;;;;;;;1.60;0.93;;;;;;;;;;5051003;28;20025;-64
2022/10/28 11:48:20;;;;;;;3.93;0.93;;;;;;;;;;5046916;28;20360;-64
2022/10/28 11:51:05;;;;;;;1.10;0.50;;;;;;;;;;5046898;28;20457;-63
2022/10/28 11:53:46;;;;;;;2.90;1.70;;;;;;;;;;5046715;28;20158;-64
2022/10/28 11:56:28;;;;;;;2.50;1.03;;;;;;;;;;5046663;28;20394;-64
2022/10/28 11:59:00;;;;;;;2.73;1.40;;;;;;;;;;5058227;28;20024;-64
2022/10/28 12:01:47;;;;;;;3.63;1.33;;;;;;;;;;5071647;28;20021;-64
2022/10/28 12:04:27;;;;;;;4.77;2.33;;;;;;;;;;5063455;28;20029;-64
2022/10/28 12:07:14;;;;;;;2.73;2.00;;;;;;;;;;5051179;28;20025;-64
2022/10/28 12:10:05;;;;;;;0.47;0.43;;;;;;;;;;5048126;28;20108;-64
2022/10/28 12:12:37;;;;;;;0.83;0.83;;;;;;;;;;5046661;28;20045;-64
2022/10/28 12:15:19;;;;;;;24.33;2.53;;;;;;;;;;5046050;28;20037;-64
2022/10/28 12:17:48;;;;;;;2.10;1.50;;;;;;;;;;5046320;28;20468;-63
2022/10/28 12:20:36;;;;;;;1.40;1.13;;;;;;;;;;5051620;28;20258;-64
2022/10/28 12:23:18;;;;;;;2.20;1.57;;;;;;;;;;5055133;28;20028;-63
2022/10/28 12:25:56;;;;;;;1.57;1.17;;;;;;;;;;5054541;28;20112;-63
2022/10/28 12:28:34;;;;;;;7.20;2.43;;;;;;;;;;5055056;28;20338;-64
2022/10/28 12:31:03;;;;;;;2.10;0.90;;;;;;;;;;5052491;28;20095;-64
2022/10/28 12:33:47;;;;;;;1.70;1.40;;;;;;;;;;5049719;28;20115;-64
2022/10/28 12:36:31;;;;;;;3.17;1.80;;;;;;;;;;5050021;28;20029;-64
2022/10/28 12:39:04;;;;;;;4.07;1.50;;;;;;;;;;5050037;28;20053;-63
2022/10/28 12:41:53;;;;;;;1.33;1.07;;;;;;;;;;5052415;28;20060;-64
2022/10/28 12:44:24;;;;;;;1.30;1.00;;;;;;;;;;5034875;28;20049;-64
2022/10/28 12:47:18;;;;;;;1.10;1.00;;;;;;;;;;5034746;28;20026;-64
2022/10/28 12:50:05;;;;;;;1.17;1.00;;;;;;;;;;5034387;28;20029;-64
2022/10/28 12:52:44;;;;;;;1.40;1.20;;;;;;;;;;5040359;28;20269;-63
2022/10/28 12:55:33;;;;;;;1.80;1.10;;;;;;;;;;5049528;28;20349;-64
2022/10/28 12:58:04;;;;;;;4.13;1.40;;;;;;;;;;5049589;28;20028;-63
2022/10/28 13:00:36;;;;;;;2.97;1.63;;;;;;;;;;5068922;28;20028;-64
2022/10/28 13:03:14;;;;;;;1.40;1.07;;;;;;;;;;5059985;28;20024;-63
2022/10/28 13:06:14;;;;;;;16.67;1.87;;;;;;;;;;5054042;28;20036;-64
2022/10/28 13:09:01;;;;;;;0.70;0.70;;;;;;;;;;5040305;28;20032;-64
2022/10/28 13:11:34;;;;;;;3.73;1.80;;;;;;;;;;5053832;28;20053;-64
2022/10/28 13:14:10;;;;;;;1.57;1.13;;;;;;;;;;5054446;28;20431;-63
2022/10/28 13:16:58;;;;;;;3.90;2.00;;;;;;;;;;5050301;28;20675;-63
2022/10/28 13:19:43;;;;;;;6.27;2.13;;;;;;;;;;5048806;28;20061;-64
2022/10/28 13:22:09;;;;;;;2.35;1.45;;;;;;;;;;5048883;28;20480;-64
2022/10/28 13:24:48;;;;;;;4.27;2.73;;;;;;;;;;5049440;28;20545;-63
2022/10/28 13:27:15;;;;;;;4.87;2.00;;;;;;;;;;5053108;28;20017;-64
2022/10/28 13:29:43;;;;;;;3.03;2.17;;;;;;;;;;5053151;28;20509;-64
2022/10/28 13:32:30;;;;;;;6.80;1.90;;;;;;;;;;5053064;28;20363;-63
2022/10/28 13:34:57;;;;;;;4.70;1.57;;;;;;;;;;5053762;28;20033;-64
2022/10/28 13:37:25;;;;;;;4.20;2.13;;;;;;;;;;5053101;28;20037;-64
2022/10/28 13:39:52;;;;;;;3.67;1.77;;;;;;;;;;5048323;28;20025;-64
2022/10/28 13:42:22;;;;;;;2.33;1.30;;;;;;;;;;5048208;28;20033;-63
2022/10/28 13:44:55;;;;;;;7.83;2.10;;;;;;;;;;5064122;28;20017;-63
2022/10/28 13:47:27;;;;;;;2.43;1.90;;;;;;;;;;5069244;28;20044;-65
2022/10/28 13:50:08;;;;;;;6.77;2.70;;;;;;;;;;5073521;28;20398;-64
2022/10/28 13:52:42;;;;;;;2.97;1.97;;;;;;;;;;5033276;28;20375;-65
2022/10/28 13:55:26;;;;;;;3.38;2.17;;;;;;;;;;5035377;28;20065;-64
2022/10/28 13:58:00;;;;;;;3.73;2.43;;;;;;;;;;5052714;28;20032;-65
2022/10/28 14:00:27;;;;;;;8.52;2.72;;;;;;;;;;5055390;28;20036;-65
2022/10/28 14:02:55;;;;;;;3.07;1.80;;;;;;;;;;5048132;28;20025;-65
2022/10/28 14:05:26;;;;;;;3.37;2.47;;;;;;;;;;5048171;28;20104;-65
2022/10/28 14:07:55;;;;;;;2.10;1.50;;;;;;;;;;5048238;28;20036;-66
2022/10/28 14:10:24;;;;;;;4.77;2.13;;;;;;;;;;5049815;28;20013;-67
2022/10/28 14:12:53;;;;;;;4.43;2.83;;;;;;;;;;5053174;28;20051;-66
2022/10/28 14:15:25;;;;;;;5.47;3.47;;;;;;;;;;5052628;28;20044;-68
2022/10/28 14:18:16;;;;;;;3.40;2.00;;;;;;;;;;5053084;28;20435;-64
2022/10/28 14:20:49;;;;;;;4.70;2.23;;;;;;;;;;5043624;28;20033;-65
2022/10/28 14:23:37;;;;;;;5.03;3.07;;;;;;;;;;5049117;28;20467;-65
2022/10/28 14:26:07;;;;;;;3.27;2.50;;;;;;;;;;5016970;28;20396;-66
2022/10/28 14:28:36;;;;;;;3.87;2.77;;;;;;;;;;5047923;28;20067;-67
2022/10/28 14:33:37;;;;;;;13.87;3.90;;;;;;;;;;5051636;28;20171;-65
2022/10/28 14:36:09;;;;;;;9.77;3.23;;;;;;;;;;5052626;28;21012;-66
2022/10/28 14:38:40;;;;;;;7.40;4.50;;;;;;;;;;5052485;28;20110;-65
2022/10/28 14:41:26;;;;;;;7.87;4.30;;;;;;;;;;5052318;28;20395;-66
2022/10/28 14:44:11;;;;;;;10.20;4.23;;;;;;;;;;5052205;28;20018;-66
2022/10/28 14:47:01;;;;;;;9.83;3.77;;;;;;;;;;5047670;28;20091;-65
2022/10/28 14:49:32;;;;;;;20.37;4.70;;;;;;;;;;5046743;28;20029;-66
2022/10/28 14:52:09;;;;;;;4.10;3.13;;;;;;;;;;5047467;28;20021;-67
2022/10/28 14:54:43;;;;;;;4.97;3.00;;;;;;;;;;5048646;28;20029;-67
2022/10/28 14:57:10;;;;;;;;;;;;;;;;;;5052742;28;20059;-66
2022/10/28 14:59:44;;;;;;;5.63;3.83;;;;;;;;;;5056584;28;19908;-67
2022/10/28 15:02:13;;;;;;;9.07;4.90;;;;;;;;;;5052211;28;20052;-66
2022/10/28 15:04:44;;;;;;;13.30;5.23;;;;;;;;;;5051913;28;20494;-68
2022/10/28 15:07:17;;;;;;;10.77;4.80;;;;;;;;;;5049601;28;20059;-68
2022/10/28 15:09:52;;;;;;;8.73;5.20;;;;;;;;;;5046705;28;20044;-65
2022/10/28 15:12:28;;;;;;;4.82;3.78;;;;;;;;;;5046671;28;20432;-66
2022/10/28 15:14:57;;;;;;;8.10;4.33;;;;;;;;;;5046917;28;20090;-67
2022/10/28 15:17:27;;;;;;;11.60;5.03;;;;;;;;;;5049510;28;20021;-66